Time;durP1;ratioP1;P1;durP2;ratioP2;P2;SDS_P1;SDS_P2;PMS_P1;PMS_P2;Temp;Humidity;BMP_temperature;BMP_pressure;BME280_temperature;BME280_humidity;BME280_pressure;Samples;Min_cycle;Max_cycle;Signal;HPM_P1;HPM_P2
2021/06/19 00:02:19;;;;;;;9.85;6.63;;;;;;;;;;3581512;40;20252;-67
2021/06/19 00:04:45;;;;;;;14.73;7.78;;;;;;;;;;3579478;40;20133;-67
2021/06/19 00:07:10;;;;;;;14.70;8.93;;;;;;;;;;3581520;40;20119;-67
2021/06/19 00:09:37;;;;;;;13.77;8.48;;;;;;;;;;3582918;40;20357;-67
2021/06/19 00:12:03;;;;;;;15.07;9.18;;;;;;;;;;3582300;40;20060;-68
2021/06/19 00:14:28;;;;;;;16.33;9.50;;;;;;;;;;3581623;40;20033;-67
2021/06/19 00:16:53;;;;;;;10.68;8.85;;;;;;;;;;3581295;40;20033;-67
2021/06/19 00:19:19;;;;;;;21.85;9.27;;;;;;;;;;3583023;40;20474;-67
2021/06/19 00:21:45;;;;;;;19.77;9.77;;;;;;;;;;3583613;40;20032;-67
2021/06/19 00:24:22;;;;;;;14.13;9.00;;;;;;;;;;3580847;40;20037;-67
2021/06/19 00:26:49;;;;;;;14.15;8.80;;;;;;;;;;3580924;40;20064;-66
2021/06/19 00:29:15;;;;;;;10.98;8.20;;;;;;;;;;3580265;40;20053;-67
2021/06/19 00:35:05;;;;;;;15.18;7.10;;;;;;;;;;3578697;40;20123;-66
2021/06/19 00:37:31;;;;;;;12.32;7.85;;;;;;;;;;3582060;40;20150;-66
2021/06/19 00:39:57;;;;;;;12.52;7.97;;;;;;;;;;3580915;40;20037;-66
2021/06/19 00:42:22;;;;;;;16.55;8.27;;;;;;;;;;3580592;40;20032;-66
2021/06/19 00:44:48;;;;;;;14.00;8.30;;;;;;;;;;3580178;40;20376;-67
2021/06/19 00:47:14;;;;;;;13.15;8.45;;;;;;;;;;3582071;40;20029;-65
2021/06/19 00:49:40;;;;;;;17.80;8.18;;;;;;;;;;3581787;40;20064;-65
2021/06/19 00:52:06;;;;;;;17.33;8.18;;;;;;;;;;3579741;40;20035;-65
2021/06/19 00:54:32;;;;;;;13.27;9.32;;;;;;;;;;3580835;40;20037;-65
2021/06/19 00:56:57;;;;;;;11.73;10.32;;;;;;;;;;3580811;40;20075;-65
2021/06/19 00:59:24;;;;;;;12.60;9.57;;;;;;;;;;3581311;40;20044;-66
2021/06/19 01:01:49;;;;;;;19.85;9.45;;;;;;;;;;3575104;40;20055;-66
2021/06/19 01:04:15;;;;;;;14.65;11.07;;;;;;;;;;3580661;40;20041;-64
2021/06/19 01:06:41;;;;;;;14.40;11.15;;;;;;;;;;3581881;40;20142;-65
2021/06/19 01:09:09;;;;;;;18.10;11.52;;;;;;;;;;3581227;40;20292;-65
2021/06/19 01:11:35;;;;;;;17.23;11.80;;;;;;;;;;3580930;40;20367;-65
2021/06/19 01:14:02;;;;;;;13.43;11.38;;;;;;;;;;3580174;40;20040;-65
2021/06/19 01:16:28;;;;;;;13.38;11.18;;;;;;;;;;3571960;40;20044;-64
2021/06/19 01:18:53;;;;;;;16.75;11.88;;;;;;;;;;3570973;40;20045;-65
2021/06/19 01:21:21;;;;;;;13.13;11.80;;;;;;;;;;3581630;40;20043;-65
2021/06/19 01:23:48;;;;;;;14.57;13.05;;;;;;;;;;3580810;40;20025;-65
2021/06/19 01:26:15;;;;;;;14.90;12.70;;;;;;;;;;3581300;40;20044;-65
2021/06/19 01:28:42;;;;;;;13.07;11.23;;;;;;;;;;3580908;40;20065;-65
2021/06/19 01:31:08;;;;;;;11.65;10.38;;;;;;;;;;3582859;40;20404;-65
2021/06/19 01:33:34;;;;;;;15.20;11.02;;;;;;;;;;3574088;40;20122;-65
2021/06/19 01:35:59;;;;;;;18.73;10.20;;;;;;;;;;3580092;40;20029;-65
2021/06/19 01:38:25;;;;;;;17.42;11.20;;;;;;;;;;3579851;40;20380;-64
2021/06/19 01:40:50;;;;;;;14.40;13.02;;;;;;;;;;3582430;40;20073;-64
2021/06/19 01:43:16;;;;;;;22.92;13.10;;;;;;;;;;3580779;40;20037;-64
2021/06/19 01:45:41;;;;;;;16.95;12.80;;;;;;;;;;3580141;40;20039;-64
2021/06/19 01:48:07;;;;;;;15.98;14.40;;;;;;;;;;3581321;40;20361;-65
2021/06/19 01:50:35;;;;;;;17.40;12.77;;;;;;;;;;3571315;40;20041;-65
2021/06/19 01:53:01;;;;;;;17.15;15.07;;;;;;;;;;3581418;40;20033;-65
2021/06/19 01:55:27;;;;;;;18.60;14.07;;;;;;;;;;3581927;40;20261;-64
2021/06/19 01:57:55;;;;;;;17.63;15.85;;;;;;;;;;3582547;40;20408;-64
2021/06/19 02:00:25;;;;;;;20.33;16.50;;;;;;;;;;3581626;40;20049;-64
2021/06/19 02:02:52;;;;;;;21.10;16.17;;;;;;;;;;3579899;40;20293;-64
2021/06/19 02:05:19;;;;;;;16.83;15.23;;;;;;;;;;3580599;40;20037;-66
2021/06/19 02:07:51;;;;;;;20.45;13.07;;;;;;;;;;3572913;40;20032;-65
2021/06/19 02:10:19;;;;;;;16.85;15.15;;;;;;;;;;3581103;40;20040;-65
2021/06/19 02:12:45;;;;;;;21.35;16.23;;;;;;;;;;3580572;40;20360;-64
2021/06/19 02:15:11;;;;;;;21.63;14.80;;;;;;;;;;3580314;40;20040;-66
2021/06/19 02:17:37;;;;;;;16.08;12.55;;;;;;;;;;3579763;40;20033;-64
2021/06/19 02:20:07;;;;;;;13.48;11.52;;;;;;;;;;3580537;40;20039;-65
2021/06/19 02:22:34;;;;;;;14.07;10.63;;;;;;;;;;3581262;40;20033;-64
2021/06/19 02:24:59;;;;;;;17.33;10.85;;;;;;;;;;3579526;40;20049;-65
2021/06/19 02:27:25;;;;;;;17.27;11.35;;;;;;;;;;3579717;40;20463;-65
2021/06/19 02:29:50;;;;;;;13.98;10.80;;;;;;;;;;3580371;40;20037;-65
2021/06/19 02:32:16;;;;;;;18.33;12.05;;;;;;;;;;3582765;40;20025;-66
2021/06/19 02:34:42;;;;;;;16.83;11.90;;;;;;;;;;3581259;40;20364;-66
2021/06/19 02:37:08;;;;;;;18.95;14.45;;;;;;;;;;3580263;40;20033;-67
2021/06/19 02:39:33;;;;;;;21.15;13.63;;;;;;;;;;3580515;40;20029;-66
2021/06/19 02:41:59;;;;;;;15.82;14.02;;;;;;;;;;3580730;40;20041;-66
2021/06/19 02:44:25;;;;;;;15.80;14.30;;;;;;;;;;3580978;40;20045;-66
2021/06/19 02:46:50;;;;;;;18.25;13.98;;;;;;;;;;3579749;40;20430;-65
2021/06/19 02:49:16;;;;;;;16.42;14.63;;;;;;;;;;3581270;40;20043;-66
2021/06/19 02:51:41;;;;;;;18.65;15.05;;;;;;;;;;3579626;40;20043;-66
2021/06/19 02:54:07;;;;;;;17.98;16.13;;;;;;;;;;3580649;40;20069;-66
2021/06/19 02:56:32;;;;;;;18.77;14.68;;;;;;;;;;3579938;40;20032;-66
2021/06/19 02:58:57;;;;;;;20.85;16.25;;;;;;;;;;3582676;40;20044;-65
2021/06/19 03:01:23;;;;;;;15.85;14.05;;;;;;;;;;3581561;40;20060;-66
2021/06/19 03:03:48;;;;;;;24.73;16.27;;;;;;;;;;3581009;40;20134;-65
2021/06/19 03:06:15;;;;;;;19.52;14.98;;;;;;;;;;3571036;40;20041;-66
2021/06/19 03:08:41;;;;;;;18.90;14.32;;;;;;;;;;3582103;40;20628;-65
2021/06/19 03:11:06;;;;;;;19.23;15.68;;;;;;;;;;3580904;40;20037;-65
2021/06/19 03:13:32;;;;;;;17.10;14.05;;;;;;;;;;3579691;40;20040;-67
2021/06/19 03:15:57;;;;;;;18.73;16.67;;;;;;;;;;3581004;40;20052;-67
2021/06/19 03:18:23;;;;;;;17.55;15.68;;;;;;;;;;3580588;40;20151;-66
2021/06/19 03:20:49;;;;;;;26.80;16.10;;;;;;;;;;3582062;40;20049;-66
2021/06/19 03:23:15;;;;;;;21.05;15.50;;;;;;;;;;3581464;40;20083;-66
2021/06/19 03:25:43;;;;;;;17.50;15.60;;;;;;;;;;3581403;40;20391;-67
2021/06/19 03:28:10;;;;;;;19.33;14.32;;;;;;;;;;3583078;40;20288;-66
2021/06/19 03:30:38;;;;;;;17.20;15.50;;;;;;;;;;3582286;40;20107;-66
2021/06/19 03:33:05;;;;;;;19.13;15.27;;;;;;;;;;3576488;40;20040;-66
2021/06/19 03:35:30;;;;;;;17.85;16.08;;;;;;;;;;3581915;40;20126;-66
2021/06/19 03:37:58;;;;;;;16.98;15.18;;;;;;;;;;3580882;40;20045;-65
2021/06/19 03:40:25;;;;;;;17.73;13.93;;;;;;;;;;3581302;40;20037;-66
2021/06/19 03:42:51;;;;;;;18.02;13.68;;;;;;;;;;3582557;40;20021;-66
2021/06/19 03:45:19;;;;;;;16.35;14.75;;;;;;;;;;3582561;40;20437;-67
2021/06/19 03:47:45;;;;;;;15.30;13.73;;;;;;;;;;3581732;40;20426;-65
2021/06/19 03:50:13;;;;;;;18.38;15.60;;;;;;;;;;3572407;40;20037;-65
2021/06/19 03:52:39;;;;;;;20.48;16.45;;;;;;;;;;3572835;40;20032;-65
2021/06/19 03:55:08;;;;;;;20.52;14.90;;;;;;;;;;3582242;40;20069;-66
2021/06/19 03:57:34;;;;;;;17.10;14.68;;;;;;;;;;3583009;40;20052;-65
2021/06/19 04:00:00;;;;;;;19.42;15.38;;;;;;;;;;3583597;40;20036;-65
2021/06/19 04:02:26;;;;;;;26.15;14.65;;;;;;;;;;3580833;40;20296;-65
2021/06/19 04:04:52;;;;;;;17.02;15.48;;;;;;;;;;3580980;40;20033;-66
2021/06/19 04:07:18;;;;;;;17.13;15.60;;;;;;;;;;3580246;40;20036;-66
2021/06/19 04:09:48;;;;;;;15.63;14.07;;;;;;;;;;3583004;40;20036;-65
2021/06/19 04:12:15;;;;;;;17.45;15.60;;;;;;;;;;3581209;40;20033;-65
2021/06/19 04:14:41;;;;;;;16.23;13.05;;;;;;;;;;3582620;40;20041;-65
2021/06/19 04:17:08;;;;;;;18.42;13.68;;;;;;;;;;3580699;40;20025;-65
2021/06/19 04:19:38;;;;;;;23.02;14.70;;;;;;;;;;3581170;40;20268;-65
2021/06/19 04:22:04;;;;;;;21.63;15.93;;;;;;;;;;3581930;40;20041;-65
2021/06/19 04:24:30;;;;;;;19.75;17.60;;;;;;;;;;3582067;40;20047;-66
2021/06/19 04:26:55;;;;;;;19.02;17.05;;;;;;;;;;3580932;40;20037;-65
2021/06/19 04:29:21;;;;;;;20.23;15.18;;;;;;;;;;3580205;40;20045;-65
2021/06/19 04:31:46;;;;;;;16.45;14.85;;;;;;;;;;3581969;40;20033;-66
2021/06/19 04:34:13;;;;;;;17.92;15.73;;;;;;;;;;3582120;40;20333;-65
2021/06/19 04:36:38;;;;;;;19.80;17.25;;;;;;;;;;3581738;40;20040;-65
2021/06/19 04:39:04;;;;;;;17.08;15.40;;;;;;;;;;3581754;40;20040;-65
2021/06/19 04:44:40;;;;;;;20.92;17.25;;;;;;;;;;3581011;40;20044;-66
2021/06/19 04:47:06;;;;;;;17.42;15.63;;;;;;;;;;3579894;40;20463;-66
2021/06/19 04:49:31;;;;;;;17.48;15.77;;;;;;;;;;3571865;40;20041;-66
2021/06/19 04:51:57;;;;;;;17.55;15.88;;;;;;;;;;3581411;40;20048;-67
2021/06/19 04:54:23;;;;;;;19.77;15.80;;;;;;;;;;3582123;40;20119;-66
2021/06/19 04:56:49;;;;;;;20.30;15.48;;;;;;;;;;3583848;40;20320;-66
2021/06/19 04:59:15;;;;;;;16.88;13.80;;;;;;;;;;3581649;40;20045;-66
2021/06/19 05:01:40;;;;;;;17.63;16.08;;;;;;;;;;3580338;40;20055;-65
2021/06/19 05:04:06;;;;;;;18.33;15.38;;;;;;;;;;3580078;40;20732;-66
2021/06/19 05:06:34;;;;;;;18.42;16.73;;;;;;;;;;3581997;40;20477;-66
2021/06/19 05:09:00;;;;;;;17.13;15.35;;;;;;;;;;3581576;40;20035;-66
2021/06/19 05:11:25;;;;;;;19.15;17.15;;;;;;;;;;3580338;40;20033;-65
2021/06/19 05:13:50;;;;;;;23.45;15.90;;;;;;;;;;3580830;40;20353;-65
2021/06/19 05:16:16;;;;;;;18.52;14.70;;;;;;;;;;3579381;40;20439;-66
2021/06/19 05:18:41;;;;;;;26.38;17.05;;;;;;;;;;3580313;40;20407;-65
2021/06/19 05:21:07;;;;;;;18.25;16.00;;;;;;;;;;3581523;40;20073;-66
2021/06/19 05:23:32;;;;;;;17.85;14.93;;;;;;;;;;3581919;40;20036;-66
2021/06/19 05:25:58;;;;;;;17.15;13.70;;;;;;;;;;3581534;40;20499;-66
2021/06/19 05:28:24;;;;;;;14.00;12.30;;;;;;;;;;3579502;40;20071;-66
2021/06/19 05:30:50;;;;;;;12.57;11.32;;;;;;;;;;3579549;40;20273;-65
2021/06/19 05:33:16;;;;;;;14.32;11.93;;;;;;;;;;3580016;40;20036;-66
2021/06/19 05:35:41;;;;;;;16.70;10.80;;;;;;;;;;3580589;40;20032;-65
2021/06/19 05:38:07;;;;;;;14.05;11.13;;;;;;;;;;3580427;40;20037;-65
2021/06/19 05:40:33;;;;;;;16.40;10.85;;;;;;;;;;3580378;40;20313;-65
2021/06/19 05:42:58;;;;;;;16.52;9.98;;;;;;;;;;3581463;40;20033;-65
2021/06/19 05:45:24;;;;;;;15.57;11.60;;;;;;;;;;3581203;40;20146;-64
2021/06/19 05:47:50;;;;;;;16.45;9.70;;;;;;;;;;3579751;40;20025;-65
2021/06/19 05:50:15;;;;;;;14.57;9.60;;;;;;;;;;3579306;40;20599;-64
2021/06/19 05:52:41;;;;;;;15.57;9.75;;;;;;;;;;3582412;40;20090;-63
2021/06/19 05:55:09;;;;;;;17.02;10.43;;;;;;;;;;3580515;40;20283;-64
2021/06/19 05:57:34;;;;;;;10.35;8.38;;;;;;;;;;3580924;40;20145;-64
2021/06/19 06:00:00;;;;;;;11.50;7.75;;;;;;;;;;3580879;40;20546;-64
2021/06/19 06:02:25;;;;;;;11.10;8.32;;;;;;;;;;3584008;40;20047;-65
2021/06/19 06:04:50;;;;;;;13.23;8.18;;;;;;;;;;3579728;40;20064;-64
2021/06/19 06:07:16;;;;;;;13.55;8.98;;;;;;;;;;3579496;40;20033;-64
2021/06/19 06:09:41;;;;;;;14.52;9.30;;;;;;;;;;3580906;40;20057;-65
2021/06/19 06:12:08;;;;;;;14.35;8.32;;;;;;;;;;3580098;40;20057;-65
2021/06/19 06:14:33;;;;;;;13.05;7.95;;;;;;;;;;3581277;40;20028;-65
2021/06/19 06:16:59;;;;;;;13.50;7.68;;;;;;;;;;3582842;40;20059;-65
2021/06/19 06:19:24;;;;;;;15.00;9.40;;;;;;;;;;3582270;40;20052;-65
2021/06/19 06:21:50;;;;;;;11.20;8.23;;;;;;;;;;3581401;40;20222;-66
2021/06/19 06:24:16;;;;;;;16.52;8.40;;;;;;;;;;3581875;40;20029;-65
2021/06/19 06:26:42;;;;;;;18.38;7.70;;;;;;;;;;3581589;40;20043;-66
2021/06/19 06:29:08;;;;;;;15.25;7.75;;;;;;;;;;3579724;40;20040;-66
2021/06/19 06:31:34;;;;;;;19.00;7.38;;;;;;;;;;3580705;40;20537;-66
2021/06/19 06:34:00;;;;;;;13.75;7.25;;;;;;;;;;3580997;40;20048;-66
2021/06/19 06:36:26;;;;;;;11.55;7.72;;;;;;;;;;3580734;40;20033;-66
2021/06/19 06:38:51;;;;;;;15.45;6.90;;;;;;;;;;3580544;40;20045;-65
2021/06/19 06:41:16;;;;;;;12.23;6.47;;;;;;;;;;3578721;40;20397;-65
2021/06/19 06:43:42;;;;;;;13.93;6.57;;;;;;;;;;3581040;40;20108;-66
2021/06/19 06:46:07;;;;;;;10.80;5.65;;;;;;;;;;3579897;40;20426;-65
2021/06/19 06:48:33;;;;;;;8.02;5.93;;;;;;;;;;3574932;40;20265;-66
2021/06/19 06:50:58;;;;;;;13.02;6.40;;;;;;;;;;3578803;40;20048;-66
2021/06/19 06:53:24;;;;;;;7.53;5.40;;;;;;;;;;3579119;40;20040;-66
2021/06/19 06:55:50;;;;;;;9.38;5.63;;;;;;;;;;3579138;40;20384;-66
2021/06/19 06:58:15;;;;;;;18.30;6.25;;;;;;;;;;3581573;40;20041;-66
2021/06/19 07:00:41;;;;;;;12.32;6.05;;;;;;;;;;3580376;40;20093;-66
2021/06/19 07:03:06;;;;;;;11.15;6.35;;;;;;;;;;3579528;40;20051;-66
2021/06/19 07:05:32;;;;;;;14.13;6.97;;;;;;;;;;3582403;40;20045;-66
2021/06/19 07:07:57;;;;;;;11.60;6.57;;;;;;;;;;3572624;40;20052;-66
2021/06/19 07:10:23;;;;;;;7.32;5.32;;;;;;;;;;3578315;40;20137;-66
2021/06/19 07:12:48;;;;;;;7.65;5.47;;;;;;;;;;3580014;40;20072;-65
2021/06/19 07:15:16;;;;;;;7.05;4.60;;;;;;;;;;3580235;40;20323;-65
2021/06/19 07:17:41;;;;;;;10.13;4.97;;;;;;;;;;3579468;40;20122;-66
2021/06/19 07:20:09;;;;;;;8.93;5.28;;;;;;;;;;3580544;40;20049;-66
2021/06/19 07:22:35;;;;;;;5.95;4.30;;;;;;;;;;3580438;40;20525;-65
2021/06/19 07:25:01;;;;;;;7.50;4.70;;;;;;;;;;3581735;40;20037;-65
2021/06/19 07:27:28;;;;;;;10.65;4.35;;;;;;;;;;3580016;40;20074;-64
2021/06/19 07:29:54;;;;;;;7.70;4.40;;;;;;;;;;3580588;40;20028;-67
2021/06/19 07:32:19;;;;;;;8.18;5.10;;;;;;;;;;3580297;40;20032;-66
2021/06/19 07:34:45;;;;;;;7.70;4.07;;;;;;;;;;3581080;40;20029;-66
2021/06/19 07:37:10;;;;;;;6.55;4.40;;;;;;;;;;3580615;40;20652;-66
2021/06/19 07:39:35;;;;;;;6.95;4.40;;;;;;;;;;3571566;40;20029;-66
2021/06/19 07:42:01;;;;;;;8.68;4.57;;;;;;;;;;3578560;40;20141;-66
2021/06/19 07:44:26;;;;;;;12.93;5.18;;;;;;;;;;3581230;40;20037;-66
2021/06/19 07:46:52;;;;;;;6.97;4.72;;;;;;;;;;3580310;40;20045;-65
2021/06/19 07:49:19;;;;;;;7.50;4.57;;;;;;;;;;3578699;40;20032;-66
2021/06/19 07:51:45;;;;;;;8.60;4.30;;;;;;;;;;3571417;40;20060;-66
2021/06/19 07:54:11;;;;;;;12.77;5.28;;;;;;;;;;3579277;40;20069;-66
2021/06/19 07:56:36;;;;;;;12.18;4.93;;;;;;;;;;3580679;40;20048;-66
2021/06/19 07:59:02;;;;;;;6.43;3.83;;;;;;;;;;3571164;40;20064;-66
2021/06/19 08:01:28;;;;;;;9.43;4.28;;;;;;;;;;3580834;40;20051;-66
2021/06/19 08:03:53;;;;;;;8.50;4.72;;;;;;;;;;3579899;40;20029;-67
2021/06/19 08:06:19;;;;;;;10.93;4.30;;;;;;;;;;3581389;40;20032;-64
2021/06/19 08:08:44;;;;;;;7.30;3.67;;;;;;;;;;3582103;40;20044;-65
2021/06/19 08:11:10;;;;;;;16.25;3.78;;;;;;;;;;3581205;40;20040;-66
2021/06/19 08:13:35;;;;;;;6.43;3.92;;;;;;;;;;3580715;40;20061;-66
2021/06/19 08:16:04;;;;;;;8.32;3.90;;;;;;;;;;3581724;40;20033;-65
2021/06/19 08:18:29;;;;;;;6.47;3.55;;;;;;;;;;3580641;40;20034;-67
2021/06/19 08:20:55;;;;;;;8.57;4.10;;;;;;;;;;3582560;40;20047;-66
2021/06/19 08:23:20;;;;;;;4.57;2.55;;;;;;;;;;3580117;40;20358;-65
2021/06/19 08:25:46;;;;;;;7.60;3.63;;;;;;;;;;3583191;40;20032;-66
2021/06/19 08:28:11;;;;;;;7.78;3.75;;;;;;;;;;3572464;40;20088;-66
2021/06/19 08:30:37;;;;;;;6.45;3.22;;;;;;;;;;3582686;40;20118;-66
2021/06/19 08:33:02;;;;;;;8.05;3.40;;;;;;;;;;3575733;40;20040;-66
2021/06/19 08:35:28;;;;;;;11.27;4.00;;;;;;;;;;3581745;40;20268;-67
2021/06/19 08:37:53;;;;;;;5.93;3.78;;;;;;;;;;3581524;40;20080;-66
2021/06/19 08:40:19;;;;;;;9.00;4.50;;;;;;;;;;3581246;40;20071;-66
2021/06/19 08:42:44;;;;;;;8.45;3.83;;;;;;;;;;3582077;40;20281;-66
2021/06/19 08:45:10;;;;;;;7.13;3.50;;;;;;;;;;3580668;40;20404;-67
2021/06/19 08:47:36;;;;;;;6.50;3.28;;;;;;;;;;3581356;40;20111;-66
2021/06/19 08:50:21;;;;;;;7.88;3.78;;;;;;;;;;3580427;40;20037;-67
2021/06/19 08:52:46;;;;;;;8.73;3.35;;;;;;;;;;3580221;40;20025;-65
2021/06/19 08:55:14;;;;;;;8.98;3.65;;;;;;;;;;3582052;40;20147;-66
2021/06/19 08:57:40;;;;;;;6.20;3.22;;;;;;;;;;3582477;40;20052;-66
2021/06/19 09:00:08;;;;;;;9.30;3.10;;;;;;;;;;3580999;40;20073;-65
2021/06/19 09:02:34;;;;;;;9.30;3.97;;;;;;;;;;3582718;40;20039;-65
2021/06/19 09:05:09;;;;;;;6.10;3.47;;;;;;;;;;3581505;40;20033;-65
2021/06/19 09:07:40;;;;;;;5.28;3.33;;;;;;;;;;3580704;40;20591;-64
2021/06/19 09:10:24;;;;;;;11.27;3.42;;;;;;;;;;3581878;40;20041;-64
2021/06/19 09:12:57;;;;;;;8.45;3.60;;;;;;;;;;3576159;40;20040;-64
2021/06/19 09:15:23;;;;;;;8.90;3.65;;;;;;;;;;3581432;40;20122;-63
2021/06/19 09:18:23;;;;;;;9.10;3.00;;;;;;;;;;3573626;40;20045;-66
2021/06/19 09:20:57;;;;;;;7.63;3.35;;;;;;;;;;3580137;40;20041;-60
2021/06/19 09:23:33;;;;;;;12.45;3.90;;;;;;;;;;3581304;40;20037;-59
2021/06/19 09:26:21;;;;;;;7.80;3.22;;;;;;;;;;3581006;40;20379;-62
2021/06/19 09:29:15;;;;;;;5.35;2.90;;;;;;;;;;3580977;40;20070;-64
2021/06/19 09:31:45;;;;;;;8.40;2.88;;;;;;;;;;3579609;40;20032;-68
2021/06/19 09:34:17;;;;;;;6.43;3.35;;;;;;;;;;3580906;40;20039;-59
2021/06/19 09:36:44;;;;;;;7.20;2.78;;;;;;;;;;3581308;40;20040;-59
2021/06/19 09:39:12;;;;;;;4.82;2.72;;;;;;;;;;3580291;40;20029;-59
2021/06/19 09:41:53;;;;;;;6.03;2.92;;;;;;;;;;3580911;40;20033;-59
2021/06/19 09:44:42;;;;;;;10.68;3.15;;;;;;;;;;3582467;40;20033;-59
2021/06/19 09:47:10;;;;;;;3.63;2.20;;;;;;;;;;3580036;40;20045;-59
2021/06/19 09:49:39;;;;;;;13.82;3.13;;;;;;;;;;3571784;40;20115;-58
2021/06/19 09:52:05;;;;;;;10.45;3.28;;;;;;;;;;3573174;40;20056;-58
2021/06/19 09:54:40;;;;;;;6.70;3.33;;;;;;;;;;3570992;40;20029;-58
2021/06/19 09:57:09;;;;;;;4.07;2.70;;;;;;;;;;3582482;40;20249;-59
2021/06/19 09:59:36;;;;;;;;;;;;;;;;;;3581434;40;20264;-59
2021/06/19 10:02:14;;;;;;;13.40;3.40;;;;;;;;;;3580932;40;20469;-59
2021/06/19 10:04:39;;;;;;;10.80;3.28;;;;;;;;;;3581543;40;20032;-59
2021/06/19 10:07:05;;;;;;;4.18;2.78;;;;;;;;;;3580371;40;20040;-59
2021/06/19 10:09:31;;;;;;;5.72;2.75;;;;;;;;;;3580353;40;20051;-59
2021/06/19 10:11:58;;;;;;;6.45;2.92;;;;;;;;;;3581870;40;20084;-59
2021/06/19 10:14:24;;;;;;;7.22;3.25;;;;;;;;;;3581418;40;20635;-59
2021/06/19 10:16:53;;;;;;;8.20;3.30;;;;;;;;;;3580343;40;20041;-59
2021/06/19 10:19:22;;;;;;;9.68;3.50;;;;;;;;;;3571621;40;20078;-59
2021/06/19 10:21:50;;;;;;;9.30;3.50;;;;;;;;;;3581965;40;20380;-59
2021/06/19 10:24:18;;;;;;;7.30;3.20;;;;;;;;;;3582076;40;20268;-60
2021/06/19 10:26:45;;;;;;;10.20;3.40;;;;;;;;;;3581447;40;20051;-59
2021/06/19 10:29:11;;;;;;;8.07;3.28;;;;;;;;;;3581234;40;20064;-59
2021/06/19 10:31:57;;;;;;;8.60;3.70;;;;;;;;;;3581372;40;20033;-59
2021/06/19 10:34:31;;;;;;;7.30;3.08;;;;;;;;;;3580536;40;20091;-59
2021/06/19 10:36:59;;;;;;;6.82;3.72;;;;;;;;;;3581552;40;20039;-59
2021/06/19 10:39:42;;;;;;;8.23;3.20;;;;;;;;;;3581467;40;20121;-59
2021/06/19 10:42:23;;;;;;;14.88;3.70;;;;;;;;;;3581377;40;20045;-59
2021/06/19 10:45:04;;;;;;;5.82;3.17;;;;;;;;;;3582127;40;20037;-59
2021/06/19 10:47:32;;;;;;;8.75;3.55;;;;;;;;;;3580630;40;20075;-59
2021/06/19 10:49:59;;;;;;;8.65;3.05;;;;;;;;;;3580594;40;20265;-59
2021/06/19 10:52:33;;;;;;;19.30;3.42;;;;;;;;;;3582300;40;20311;-59
2021/06/19 10:55:10;;;;;;;6.40;3.45;;;;;;;;;;3581306;40;20045;-59
2021/06/19 10:57:54;;;;;;;6.40;2.83;;;;;;;;;;3572609;40;20078;-59
2021/06/19 11:00:46;;;;;;;10.45;3.60;;;;;;;;;;3572059;40;20385;-58
2021/06/19 11:03:13;;;;;;;8.05;3.28;;;;;;;;;;3580524;40;20041;-58
2021/06/19 11:05:44;;;;;;;13.00;3.60;;;;;;;;;;3581995;40;20440;-59
2021/06/19 11:08:18;;;;;;;7.60;3.78;;;;;;;;;;3570232;40;20052;-58
2021/06/19 11:13:30;;;;;;;6.63;3.22;;;;;;;;;;3570536;40;20177;-59
2021/06/19 11:16:19;;;;;;;8.02;3.45;;;;;;;;;;3570979;40;20051;-59
2021/06/19 11:18:50;;;;;;;6.80;3.67;;;;;;;;;;3556734;40;20052;-59
2021/06/19 11:21:34;;;;;;;8.80;3.90;;;;;;;;;;3581280;40;20056;-59
2021/06/19 11:23:59;;;;;;;8.75;3.78;;;;;;;;;;3581694;40;20056;-60
2021/06/19 11:26:45;;;;;;;7.00;3.97;;;;;;;;;;3581620;40;20538;-60
2021/06/19 11:29:38;;;;;;;6.90;3.50;;;;;;;;;;3578990;40;20829;-59
2021/06/19 11:32:35;;;;;;;9.93;3.40;;;;;;;;;;3581322;40;20647;-60
2021/06/19 11:35:03;;;;;;;12.95;4.00;;;;;;;;;;3578997;40;20043;-60
2021/06/19 11:37:50;;;;;;;13.35;3.65;;;;;;;;;;3578965;40;20050;-60
2021/06/19 11:40:29;;;;;;;7.15;3.33;;;;;;;;;;3580580;40;20033;-63
2021/06/19 11:42:54;;;;;;;7.93;3.67;;;;;;;;;;3582173;40;20413;-60
2021/06/19 11:45:20;;;;;;;9.40;4.15;;;;;;;;;;3581350;40;20155;-60
2021/06/19 11:47:47;;;;;;;9.38;3.53;;;;;;;;;;3581781;40;20029;-60
2021/06/19 11:50:13;;;;;;;7.82;3.10;;;;;;;;;;3581716;40;20045;-59
2021/06/19 11:52:39;;;;;;;8.52;3.95;;;;;;;;;;3572625;40;20055;-60
2021/06/19 11:55:05;;;;;;;9.85;3.72;;;;;;;;;;3581489;40;20436;-60
2021/06/19 11:57:31;;;;;;;13.98;3.53;;;;;;;;;;3582101;40;20060;-60
2021/06/19 12:00:12;;;;;;;7.45;3.20;;;;;;;;;;3582965;40;20049;-60
2021/06/19 12:02:38;;;;;;;7.75;2.80;;;;;;;;;;3580385;40;20051;-60
2021/06/19 12:05:15;;;;;;;8.98;3.58;;;;;;;;;;3572362;40;20048;-61
2021/06/19 12:07:41;;;;;;;8.80;3.15;;;;;;;;;;3583072;40;20063;-60
2021/06/19 12:10:30;;;;;;;9.43;3.42;;;;;;;;;;3580202;40;20506;-61
2021/06/19 12:13:03;;;;;;;8.80;3.15;;;;;;;;;;3582669;40;20032;-59
2021/06/19 12:15:30;;;;;;;14.35;3.22;;;;;;;;;;3581157;40;20404;-60
2021/06/19 12:17:55;;;;;;;6.07;3.13;;;;;;;;;;3580299;40;20040;-60
2021/06/19 12:20:25;;;;;;;5.38;2.97;;;;;;;;;;3582156;40;20025;-60
2021/06/19 12:22:51;;;;;;;;;;;;;;;;;;3575677;40;20037;-59
2021/06/19 12:25:35;;;;;;;7.57;3.65;;;;;;;;;;3571878;40;20032;-60
2021/06/19 12:28:02;;;;;;;13.77;3.47;;;;;;;;;;3580874;40;20370;-60
2021/06/19 12:30:28;;;;;;;9.27;3.10;;;;;;;;;;3580711;40;20043;-60
2021/06/19 12:32:53;;;;;;;6.50;3.35;;;;;;;;;;3581349;40;20033;-60
2021/06/19 12:35:21;;;;;;;6.20;3.42;;;;;;;;;;3582478;40;20033;-59
2021/06/19 12:37:55;;;;;;;7.45;3.47;;;;;;;;;;3581427;40;20037;-59
2021/06/19 12:40:33;;;;;;;5.90;3.20;;;;;;;;;;3579870;40;20040;-60
2021/06/19 12:42:58;;;;;;;6.03;3.75;;;;;;;;;;3581190;40;20488;-60
2021/06/19 12:45:31;;;;;;;7.35;3.42;;;;;;;;;;3581485;40;20040;-61
2021/06/19 12:47:56;;;;;;;6.75;3.38;;;;;;;;;;3582193;40;20115;-59
2021/06/19 12:50:31;;;;;;;5.93;2.70;;;;;;;;;;3581580;40;20056;-60
2021/06/19 12:53:01;;;;;;;8.02;3.40;;;;;;;;;;3581907;40;20036;-59
2021/06/19 12:55:32;;;;;;;9.73;3.65;;;;;;;;;;3582549;40;20037;-60
2021/06/19 12:58:13;;;;;;;8.50;3.30;;;;;;;;;;3582378;40;20032;-59
2021/06/19 13:00:55;;;;;;;6.50;3.22;;;;;;;;;;3580886;40;20287;-59
2021/06/19 13:03:40;;;;;;;7.50;3.45;;;;;;;;;;3580967;40;20040;-59
2021/06/19 13:06:07;;;;;;;5.93;3.00;;;;;;;;;;3581621;40;20685;-59
2021/06/19 13:08:35;;;;;;;11.75;4.82;;;;;;;;;;3581765;40;20060;-60
2021/06/19 13:11:18;;;;;;;6.50;3.30;;;;;;;;;;3580947;40;20037;-57
2021/06/19 13:13:46;;;;;;;19.10;3.38;;;;;;;;;;3580942;40;20026;-59
2021/06/19 13:16:13;;;;;;;9.27;3.17;;;;;;;;;;3583479;40;20092;-60
2021/06/19 13:18:40;;;;;;;6.60;3.10;;;;;;;;;;3580831;40;20314;-59
2021/06/19 13:21:13;;;;;;;9.90;3.92;;;;;;;;;;3580737;40;20040;-58
2021/06/19 13:23:43;;;;;;;8.00;4.05;;;;;;;;;;3581170;40;20064;-60
2021/06/19 13:26:10;;;;;;;5.68;3.20;;;;;;;;;;3582019;40;20059;-58
2021/06/19 13:28:55;;;;;;;9.85;3.83;;;;;;;;;;3579800;40;20040;-59
2021/06/19 13:31:24;;;;;;;7.80;3.72;;;;;;;;;;3582024;40;20031;-59
2021/06/19 13:33:58;;;;;;;6.70;3.13;;;;;;;;;;3583746;40;20343;-59
2021/06/19 13:36:34;;;;;;;9.10;3.75;;;;;;;;;;3580368;40;20044;-59
2021/06/19 13:39:19;;;;;;;6.35;3.25;;;;;;;;;;3579959;40;20036;-59
2021/06/19 13:41:47;;;;;;;9.95;4.55;;;;;;;;;;3579936;40;20137;-59
2021/06/19 13:44:15;;;;;;;6.95;3.50;;;;;;;;;;3579892;40;20074;-57
2021/06/19 13:46:42;;;;;;;7.85;3.42;;;;;;;;;;3581224;40;21691;-59
2021/06/19 13:49:09;;;;;;;11.18;3.28;;;;;;;;;;3564063;40;20033;-59
2021/06/19 13:51:34;;;;;;;8.57;3.47;;;;;;;;;;3572837;40;20033;-59
2021/06/19 13:54:03;;;;;;;6.95;3.15;;;;;;;;;;3581757;40;20038;-58
2021/06/19 13:56:28;;;;;;;15.18;3.40;;;;;;;;;;3580928;40;20074;-58
2021/06/19 13:58:54;;;;;;;8.80;3.83;;;;;;;;;;3580222;40;20049;-58
2021/06/19 14:01:20;;;;;;;7.28;3.65;;;;;;;;;;3580684;40;20044;-58
2021/06/19 14:03:46;;;;;;;7.93;3.50;;;;;;;;;;3580123;40;20273;-58
2021/06/19 14:06:12;;;;;;;10.70;3.75;;;;;;;;;;3581054;40;20040;-59
2021/06/19 14:08:40;;;;;;;10.57;3.55;;;;;;;;;;3582276;40;20036;-59
2021/06/19 14:11:05;;;;;;;5.07;3.15;;;;;;;;;;3582138;40;20139;-58
2021/06/19 14:13:31;;;;;;;10.52;3.28;;;;;;;;;;3581442;40;20037;-58
2021/06/19 14:15:57;;;;;;;8.35;4.00;;;;;;;;;;3580226;40;20078;-59
2021/06/19 14:18:22;;;;;;;7.72;3.38;;;;;;;;;;3582147;40;20084;-59
2021/06/19 14:20:47;;;;;;;15.07;4.03;;;;;;;;;;3579793;40;20073;-58
2021/06/19 14:23:13;;;;;;;11.35;3.80;;;;;;;;;;3579483;40;20126;-58
2021/06/19 14:25:38;;;;;;;7.10;3.75;;;;;;;;;;3582304;40;20064;-58
2021/06/19 14:28:07;;;;;;;8.38;4.13;;;;;;;;;;3581740;40;20381;-58
2021/06/19 14:30:32;;;;;;;6.73;3.60;;;;;;;;;;3580683;40;20043;-58
2021/06/19 14:32:58;;;;;;;12.32;3.50;;;;;;;;;;3580886;40;20037;-58
2021/06/19 14:35:23;;;;;;;8.50;3.75;;;;;;;;;;3580311;40;20029;-58
2021/06/19 14:37:49;;;;;;;7.65;3.53;;;;;;;;;;3581422;40;20036;-59
2021/06/19 14:40:15;;;;;;;17.10;4.13;;;;;;;;;;3581245;40;20044;-59
2021/06/19 14:42:41;;;;;;;6.65;3.83;;;;;;;;;;3580352;40;20048;-58
2021/06/19 14:45:07;;;;;;;9.40;3.63;;;;;;;;;;3580182;40;20052;-58
2021/06/19 14:47:34;;;;;;;6.70;3.60;;;;;;;;;;3580121;40;20047;-59